createdAt,value
2019-04-23T00:00:20.455Z,0
2019-04-23T00:10:25.228Z,0
2019-04-23T00:15:20.293Z,0
2019-04-23T00:20:18.412Z,0
2019-04-23T00:25:43.642Z,0
2019-04-23T00:30:26.718Z,0
2019-04-23T00:35:23.189Z,0
2019-04-23T00:40:25.960Z,0
2019-04-23T00:45:24.731Z,0
2019-04-23T00:50:30.848Z,0
2019-04-23T00:55:26.170Z,0
2019-04-23T01:05:27.651Z,0
2019-04-23T01:20:20.964Z,0
2019-04-23T01:25:13.431Z,0
2019-04-23T01:30:31.322Z,0
2019-04-23T01:35:20.228Z,0
2019-04-23T01:50:34.519Z,0
2019-04-23T01:55:24.422Z,0
2019-04-23T02:00:30.662Z,0
2019-04-23T02:05:27.490Z,0
2019-04-23T02:15:31.279Z,0
2019-04-23T02:20:33.206Z,0
2019-04-23T02:25:42.279Z,0
2019-04-23T02:30:50.676Z,0
2019-04-23T02:35:52.770Z,0
2019-04-23T02:40:46.821Z,0
2019-04-23T02:45:39.917Z,0
2019-04-23T02:50:39.788Z,0
2019-04-23T03:00:40.088Z,0
2019-04-23T03:05:35.969Z,0
2019-04-23T03:15:50.093Z,0
2019-04-23T03:25:33.897Z,0
2019-04-23T03:31:34.094Z,0
2019-04-23T03:40:27.726Z,0
2019-04-23T03:45:46.689Z,1
2019-04-23T03:55:37.416Z,6
2019-04-23T04:00:42.299Z,14
2019-04-23T04:05:31.406Z,28
2019-04-23T04:10:31.698Z,57
2019-04-23T04:15:49.050Z,72
2019-04-23T04:20:40.496Z,95
2019-04-23T04:25:42.848Z,125
2019-04-23T04:30:27.258Z,256
2019-04-23T04:35:29.762Z,333
2019-04-23T04:40:39.691Z,429
2019-04-23T04:50:24.213Z,601
2019-04-23T04:55:37.609Z,686
2019-04-23T05:00:42.958Z,733
2019-04-23T05:15:35.518Z,1000
2019-04-23T05:25:28.060Z,1000
2019-04-23T05:30:27.995Z,1000
2019-04-23T05:35:46.688Z,1000
2019-04-23T05:40:37.721Z,1000
2019-04-23T05:50:44.443Z,1000
2019-04-23T05:55:27.178Z,1000
2019-04-23T06:00:34.338Z,1000
2019-04-23T06:05:34.167Z,1000
2019-04-23T06:20:35.249Z,2000
2019-04-23T06:30:38.768Z,2000
2019-04-23T06:35:33.188Z,2000
2019-04-23T06:40:21.602Z,2000
2019-04-23T06:45:28.219Z,2000
2019-04-23T06:50:29.930Z,2000
2019-04-23T06:55:34.017Z,3000
2019-04-23T07:00:30.707Z,3000
2019-04-23T07:05:34.762Z,3000
2019-04-23T07:10:33.249Z,3000
2019-04-23T07:15:40.745Z,3000
2019-04-23T07:20:19.909Z,3000
2019-04-23T07:25:17.315Z,3000
2019-04-23T07:30:29.268Z,4000
2019-04-23T07:35:16.029Z,4000
2019-04-23T07:45:30.932Z,4000
2019-04-23T07:55:28.421Z,8000
2019-04-23T08:00:36.655Z,30000
2019-04-23T08:05:22.598Z,31000
2019-04-23T08:10:29.822Z,34000
2019-04-23T08:15:22.320Z,32000
2019-04-23T08:20:23.047Z,32000
2019-04-23T08:25:37.220Z,29000
2019-04-23T08:30:31.196Z,28000
2019-04-23T08:35:26.690Z,31000
2019-04-23T08:40:27.579Z,29000
2019-04-23T08:45:28.038Z,21000
2019-04-23T08:50:34.057Z,23000
2019-04-23T09:00:33.110Z,22000
2019-04-23T09:15:23.073Z,26000
2019-04-23T09:20:29.447Z,28000
2019-04-23T09:25:34.607Z,32000
2019-04-23T09:30:21.433Z,28000
2019-04-23T09:35:30.901Z,29000
2019-04-23T09:40:42.723Z,33000
2019-04-23T10:00:38.004Z,34000
2019-04-23T10:05:11.108Z,34000
2019-04-23T10:10:03.805Z,34000
2019-04-23T10:15:11.000Z,34000
2019-04-23T10:20:04.524Z,33000
2019-04-23T10:25:03.639Z,33000
2019-04-23T10:30:04.065Z,34000
2019-04-23T10:35:14.671Z,35000
2019-04-23T10:40:07.375Z,35000
2019-04-23T10:45:14.842Z,36000
2019-04-23T10:55:34.992Z,38000
2019-04-23T11:00:30.993Z,33000
2019-04-23T11:05:42.979Z,24000
2019-04-23T11:10:26.212Z,18000
2019-04-23T11:35:39.671Z,14000
2019-04-23T11:40:22.619Z,14000
2019-04-23T11:45:38.796Z,15000
2019-04-23T11:51:11.170Z,16000
2019-04-23T12:00:45.467Z,19000
2019-04-23T12:10:40.990Z,25000
2019-04-23T12:15:32.759Z,31000
2019-04-23T12:25:34.111Z,33000
2019-04-23T12:30:28.371Z,33000
2019-04-23T12:40:30.897Z,33000
2019-04-23T12:45:33.422Z,33000
2019-04-23T12:50:45.392Z,29000
2019-04-23T12:55:34.054Z,29000
2019-04-23T13:00:30.940Z,27000
2019-04-23T13:05:28.403Z,27000
2019-04-23T13:10:32.332Z,29000
2019-04-23T13:15:30.866Z,29000
2019-04-23T13:25:35.125Z,25000
2019-04-23T13:35:45.459Z,24000
2019-04-23T13:45:56.466Z,25000
2019-04-23T13:55:30.024Z,18000
2019-04-23T14:00:45.193Z,18000
2019-04-23T14:05:34.728Z,15000
2019-04-23T14:10:36.665Z,16000
2019-04-23T14:15:42.735Z,18000
2019-04-23T14:20:21.378Z,18000
2019-04-23T14:25:28.097Z,17000
2019-04-23T14:30:40.771Z,15000
2019-04-23T14:35:32.469Z,14000
2019-04-23T14:40:34.863Z,14000
2019-04-23T14:45:32.775Z,12000
2019-04-23T14:50:34.918Z,10000
2019-04-23T15:00:33.222Z,9000
2019-04-23T15:05:36.190Z,8000
2019-04-23T15:10:31.844Z,8000
2019-04-23T15:15:31.885Z,7000
2019-04-23T15:20:30.325Z,7000
2019-04-23T15:25:53.127Z,7000
2019-04-23T15:30:24.776Z,7000
2019-04-23T15:35:45.741Z,7000
2019-04-23T15:40:25.199Z,7000
2019-04-23T15:45:21.067Z,6000
2019-04-23T15:50:33.347Z,6000
2019-04-23T15:55:28.157Z,5000
2019-04-23T16:05:03.787Z,6000
2019-04-23T16:10:29.565Z,5000
2019-04-23T16:15:25.577Z,6000
2019-04-23T16:25:22.233Z,5000
2019-04-23T16:30:20.306Z,6000
2019-04-23T16:35:34.364Z,6000
2019-04-23T16:40:33.077Z,5000
2019-04-23T16:45:29.349Z,5000
2019-04-23T16:50:31.012Z,3000
2019-04-23T16:55:27.063Z,3000
2019-04-23T17:00:31.144Z,3000
2019-04-23T17:05:33.219Z,3000
2019-04-23T17:10:30.996Z,2000
2019-04-23T17:15:33.322Z,2000
2019-04-23T17:30:32.467Z,1000
2019-04-23T17:35:31.593Z,1000
2019-04-23T17:40:24.617Z,1000
2019-04-23T17:45:33.801Z,1000
2019-04-23T17:50:38.143Z,1000
2019-04-23T17:55:31.404Z,860
2019-04-23T18:00:36.075Z,744
2019-04-23T18:05:27.361Z,653
2019-04-23T18:10:37.054Z,582
2019-04-23T18:15:15.530Z,491
2019-04-23T18:20:31.633Z,402
2019-04-23T18:25:30.908Z,316
2019-04-23T18:35:29.835Z,95
2019-04-23T18:40:28.732Z,67
2019-04-23T18:45:39.065Z,54
2019-04-23T18:50:43.251Z,44
2019-04-23T18:55:50.371Z,32
2019-04-23T19:05:28.285Z,14
2019-04-23T19:10:32.066Z,7
2019-04-23T19:15:36.534Z,3
2019-04-23T19:25:28.095Z,0
2019-04-23T19:30:43.051Z,0
2019-04-23T19:35:57.483Z,0
2019-04-23T19:40:38.218Z,0
2019-04-23T19:50:41.386Z,0
2019-04-23T19:55:36.270Z,0
2019-04-23T20:00:51.980Z,0
2019-04-23T20:05:37.821Z,0
2019-04-23T20:10:33.251Z,0
2019-04-23T20:15:40.868Z,0
2019-04-23T20:20:25.438Z,0
2019-04-23T20:30:47.593Z,0
2019-04-23T20:35:31.995Z,0
2019-04-23T20:40:40.122Z,0
2019-04-23T20:45:39.646Z,0
2019-04-23T20:55:40.752Z,0
2019-04-23T21:00:24.254Z,0
2019-04-23T21:05:22.758Z,0
2019-04-23T21:15:37.454Z,0
2019-04-23T21:25:22.667Z,0
2019-04-23T21:30:39.775Z,0
2019-04-23T21:35:43.981Z,0
2019-04-23T21:40:55.076Z,0
2019-04-23T21:50:25.252Z,0
2019-04-23T21:55:39.135Z,0
2019-04-23T22:00:41.202Z,0
2019-04-23T22:05:32.529Z,0
2019-04-23T22:10:33.011Z,0
2019-04-23T22:15:44.954Z,0
2019-04-23T22:20:34.383Z,0
2019-04-23T22:25:43.278Z,0
2019-04-23T22:30:38.322Z,0
2019-04-23T22:35:34.866Z,0
2019-04-23T22:40:18.567Z,0
2019-04-23T22:45:38.426Z,0
2019-04-23T22:50:39.683Z,0
2019-04-23T22:55:32.764Z,0
2019-04-23T23:00:27.351Z,0
2019-04-23T23:05:51.026Z,0
2019-04-23T23:15:36.929Z,0
2019-04-23T23:20:23.751Z,0
2019-04-23T23:25:30.450Z,0
2019-04-23T23:30:40.709Z,0
2019-04-23T23:35:28.393Z,0
2019-04-23T23:40:40.277Z,0
2019-04-23T23:45:35.478Z,0
2019-04-23T23:50:25.232Z,0
2019-04-23T23:55:25.027Z,0
